Disclaimer

Please do not use the information listed here in-flight or in-navigation, as they are not provided to us by the airports but are provided by volunteers, so they might be outdated.

Search


Regions


Airport information page

Radio informations:
INFO - 122.8 MHz

Airport informations:
Latitude: 39° 36' 12.98" N
Longitude: 047° 52' 53.40" E
Elevation: 253 feet - 77 meters
Operating hours: N/A
Operating agency: Civil government, landing fees and diplomatic clearance may be required
Timezone: UTC+3:30
Fuel: N/A

Runway information:
11/29 - 8490 x 115 feet< - >2588 x 35 meters

Recent METARs:
OITP 180800Z 00000KT CAVOK 12/06 Q1023
OITP 180900Z 36004KT CAVOK 13/07 Q1022
OITP 180900Z 36004KT CAVOK 13/07 Q1022

Airport on the map: